Time;durP1;ratioP1;P1;durP2;ratioP2;P2;SDS_P1;SDS_P2;PMS_P1;PMS_P2;Temp;Humidity;BMP_temperature;BMP_pressure;BME280_temperature;BME280_humidity;BME280_pressure;Samples;Min_cycle;Max_cycle;Signal;HPM_P1;HPM_P2
2022/03/09 00:01:27;;;;;;;6.78;3.72;;;1.60;99.90;;;;;;5042795;28;20133;-73
2022/03/09 00:03:53;;;;;;;6.30;3.90;;;1.60;99.90;;;;;;5057705;28;20103;-72
2022/03/09 00:06:18;;;;;;;5.88;3.95;;;1.50;99.90;;;;;;5040377;28;20107;-74
2022/03/09 00:08:44;;;;;;;9.68;4.57;;;1.50;99.90;;;;;;5057520;28;20362;-74
2022/03/09 00:11:10;;;;;;;10.63;4.40;;;1.40;99.90;;;;;;5039017;28;20055;-74
2022/03/09 00:13:35;;;;;;;8.00;4.05;;;1.40;99.90;;;;;;5057692;28;20051;-73
2022/03/09 00:16:01;;;;;;;6.80;4.28;;;1.40;99.90;;;;;;5039654;28;20382;-73
2022/03/09 00:18:26;;;;;;;8.57;4.28;;;1.30;99.90;;;;;;5043405;28;20041;-74
2022/03/09 00:20:52;;;;;;;6.93;4.15;;;1.30;99.90;;;;;;5077191;28;20063;-73
2022/03/09 00:23:19;;;;;;;7.18;4.20;;;1.30;99.90;;;;;;5077155;28;20048;-72
2022/03/09 00:25:44;;;;;;;7.43;4.13;;;1.30;99.90;;;;;;5077378;28;20054;-75
2022/03/09 00:28:10;;;;;;;8.75;4.30;;;1.20;99.90;;;;;;5059631;28;20044;-73
2022/03/09 00:30:35;;;;;;;9.77;4.85;;;1.20;99.90;;;;;;5077224;28;20094;-75
2022/03/09 00:33:01;;;;;;;6.05;4.30;;;1.40;99.90;;;;;;5077048;28;20049;-73
2022/03/09 00:35:26;;;;;;;7.75;4.28;;;1.10;99.90;;;;;;5077495;28;20055;-73
2022/03/09 00:37:53;;;;;;;6.55;4.57;;;1.10;99.90;;;;;;5059993;28;20059;-74
2022/03/09 00:40:18;;;;;;;8.13;4.25;;;1.00;99.90;;;;;;5077218;28;20056;-74
2022/03/09 00:42:44;;;;;;;6.93;4.20;;;1.00;99.90;;;;;;5059413;28;20045;-73
2022/03/09 00:45:10;;;;;;;6.53;4.45;;;1.00;99.90;;;;;;5077127;28;20037;-72
2022/03/09 00:47:36;;;;;;;7.63;4.50;;;0.90;99.90;;;;;;5059493;28;20048;-74
2022/03/09 00:50:01;;;;;;;6.63;4.28;;;0.80;99.90;;;;;;5072537;28;20421;-72
2022/03/09 00:52:27;;;;;;;7.88;4.78;;;0.80;99.90;;;;;;5059156;28;20045;-73
2022/03/09 00:54:53;;;;;;;6.85;4.53;;;0.70;99.90;;;;;;5076505;28;20066;-75
2022/03/09 00:57:18;;;;;;;6.72;4.68;;;0.70;99.90;;;;;;5077059;28;20052;-72
2022/03/09 00:59:44;;;;;;;10.27;5.13;;;0.70;99.90;;;;;;5059117;28;20044;-73
2022/03/09 01:02:09;;;;;;;9.43;4.47;;;1.40;99.90;;;;;;5076670;28;20095;-72
2022/03/09 01:04:37;;;;;;;11.18;5.00;;;0.60;99.90;;;;;;5058794;28;20080;-72
2022/03/09 01:07:04;;;;;;;9.32;4.38;;;0.60;99.90;;;;;;5058869;28;20059;-73
2022/03/09 01:09:29;;;;;;;7.60;4.75;;;0.60;99.90;;;;;;5058804;28;20086;-74
2022/03/09 01:11:56;;;;;;;9.32;5.18;;;0.50;99.90;;;;;;5058734;28;20048;-74
2022/03/09 01:14:22;;;;;;;7.70;4.70;;;0.50;99.90;;;;;;5058164;28;20060;-74
2022/03/09 01:16:48;;;;;;;6.95;4.93;;;0.50;99.90;;;;;;5058514;28;20056;-75
2022/03/09 01:19:14;;;;;;;6.78;5.00;;;0.40;99.90;;;;;;5072423;28;20040;-73
2022/03/09 01:21:39;;;;;;;10.65;5.53;;;0.30;99.90;;;;;;5075970;28;20186;-74
2022/03/09 01:24:06;;;;;;;10.20;4.90;;;0.30;99.90;;;;;;5057590;28;20131;-73
2022/03/09 01:26:32;;;;;;;9.68;4.90;;;0.30;99.90;;;;;;5057960;28;20124;-73
2022/03/09 01:28:58;;;;;;;8.10;5.20;;;0.30;99.90;;;;;;5076057;28;20167;-74
2022/03/09 01:31:23;;;;;;;8.85;5.35;;;0.30;99.90;;;;;;5075882;28;20373;-74
2022/03/09 01:33:49;;;;;;;14.75;4.93;;;0.20;99.90;;;;;;5059092;28;20052;-74
2022/03/09 01:36:14;;;;;;;7.68;4.90;;;0.20;99.90;;;;;;5075990;28;20045;-74
2022/03/09 01:38:40;;;;;;;9.25;5.05;;;0.20;99.90;;;;;;5058765;28;20128;-73
2022/03/09 01:41:05;;;;;;;12.07;5.50;;;0.20;99.90;;;;;;5075823;28;20334;-74
2022/03/09 01:43:31;;;;;;;9.02;5.82;;;0.10;99.90;;;;;;5058054;28;20346;-72
2022/03/09 01:45:57;;;;;;;7.85;5.22;;;0.10;99.90;;;;;;5041477;28;20059;-73
2022/03/09 01:48:22;;;;;;;7.90;5.20;;;0.20;99.90;;;;;;5023381;28;20128;-74
2022/03/09 01:50:48;;;;;;;8.55;5.60;;;0.00;99.90;;;;;;5055616;28;20052;-73
2022/03/09 01:53:14;;;;;;;8.23;5.28;;;0.00;99.90;;;;;;5055721;28;20075;-73
2022/03/09 01:55:39;;;;;;;8.57;5.43;;;0.00;99.90;;;;;;5037688;28;20033;-74
2022/03/09 01:58:05;;;;;;;9.32;5.68;;;0.00;99.90;;;;;;5055673;28;20056;-74
2022/03/09 02:00:31;;;;;;;8.35;5.38;;;0.00;99.90;;;;;;5037574;28;20045;-72
2022/03/09 02:02:57;;;;;;;8.60;6.07;;;0.00;99.90;;;;;;5055832;28;20445;-72
2022/03/09 02:05:22;;;;;;;8.88;5.60;;;0.00;99.90;;;;;;5055548;28;20053;-73
2022/03/09 02:10:32;;;;;;;8.73;5.20;;;-0.10;99.90;;;;;;5055442;28;20045;-73
2022/03/09 02:12:58;;;;;;;10.50;6.70;;;-0.10;99.90;;;;;;5055244;28;20425;-72
2022/03/09 02:15:24;;;;;;;9.55;5.93;;;-0.10;99.90;;;;;;5037697;28;20059;-73
2022/03/09 02:17:49;;;;;;;9.02;6.63;;;-0.10;99.90;;;;;;5068083;28;20076;-74
2022/03/09 02:20:15;;;;;;;13.10;6.07;;;-0.20;99.90;;;;;;5074991;28;20136;-75
2022/03/09 02:22:42;;;;;;;11.35;5.70;;;-0.20;99.90;;;;;;5057199;28;20056;-73
2022/03/09 02:25:10;;;;;;;9.38;6.28;;;-0.20;99.90;;;;;;5057430;28;20041;-74
2022/03/09 02:27:37;;;;;;;8.70;5.75;;;-0.20;99.90;;;;;;5074956;28;20044;-74
2022/03/09 02:30:07;;;;;;;9.55;5.82;;;-0.20;99.90;;;;;;5040919;28;20155;-73
2022/03/09 02:32:33;;;;;;;8.98;5.90;;;-0.10;99.90;;;;;;5075002;28;20040;-73
2022/03/09 02:34:58;;;;;;;9.80;5.68;;;-0.10;99.90;;;;;;5056722;28;20072;-75
2022/03/09 02:37:24;;;;;;;9.63;5.57;;;-0.10;99.90;;;;;;5057384;28;20047;-73
2022/03/09 02:39:50;;;;;;;9.80;6.43;;;-0.10;99.90;;;;;;5074902;28;20173;-73
2022/03/09 02:42:15;;;;;;;8.95;5.35;;;-0.10;99.90;;;;;;5056991;28;20072;-74
2022/03/09 02:44:41;;;;;;;10.80;6.68;;;-0.10;99.90;;;;;;5057182;28;20052;-73
2022/03/09 02:47:07;;;;;;;10.35;5.93;;;-0.10;99.90;;;;;;5033949;28;20044;-75
2022/03/09 02:49:34;;;;;;;11.15;6.20;;;-0.10;99.90;;;;;;5055040;28;20053;-75
2022/03/09 02:51:59;;;;;;;10.93;6.97;;;-0.10;99.90;;;;;;5037423;28;20393;-74
2022/03/09 02:54:25;;;;;;;12.75;6.68;;;-0.10;99.90;;;;;;5054771;28;20091;-72
2022/03/09 02:56:51;;;;;;;9.07;5.93;;;-0.10;99.90;;;;;;5054797;28;20041;-74
2022/03/09 02:59:16;;;;;;;10.63;6.22;;;0.00;99.90;;;;;;5036909;28;20123;-75
2022/03/09 03:01:42;;;;;;;11.52;6.85;;;-0.10;99.90;;;;;;5037503;28;20052;-75
2022/03/09 03:04:07;;;;;;;10.13;6.20;;;0.00;99.90;;;;;;5038130;28;20102;-75
2022/03/09 03:06:33;;;;;;;11.02;6.20;;;0.00;99.90;;;;;;5037111;28;20075;-73
2022/03/09 03:08:58;;;;;;;9.80;6.38;;;0.10;99.90;;;;;;5038066;28;20048;-74
2022/03/09 03:11:24;;;;;;;13.40;7.13;;;0.00;99.90;;;;;;5054724;28;20071;-74
2022/03/09 03:13:50;;;;;;;13.07;6.78;;;0.00;99.90;;;;;;5051192;28;20033;-75
2022/03/09 03:16:15;;;;;;;15.88;7.22;;;0.40;99.90;;;;;;5036519;28;20055;-73
2022/03/09 03:18:41;;;;;;;11.45;6.95;;;-0.10;99.90;;;;;;5056109;28;20048;-73
2022/03/09 03:21:07;;;;;;;12.45;7.00;;;-0.10;99.90;;;;;;5056593;28;20049;-73
2022/03/09 03:23:34;;;;;;;13.77;6.90;;;-0.20;99.90;;;;;;5074565;28;20052;-74
2022/03/09 03:26:00;;;;;;;12.65;6.40;;;-0.20;99.90;;;;;;5056734;28;20395;-76
2022/03/09 03:28:26;;;;;;;14.10;7.15;;;-0.10;99.90;;;;;;5074494;28;20066;-73
2022/03/09 03:30:52;;;;;;;11.65;7.63;;;-0.20;99.90;;;;;;5057432;28;20508;-75
2022/03/09 03:33:19;;;;;;;13.35;7.50;;;-0.30;99.90;;;;;;5056818;28;20122;-75
2022/03/09 03:35:46;;;;;;;11.55;7.28;;;-0.30;99.90;;;;;;5056167;28;20055;-73
2022/03/09 03:38:12;;;;;;;11.43;7.13;;;-0.30;99.90;;;;;;5074532;28;20128;-73
2022/03/09 03:40:38;;;;;;;11.35;6.88;;;-0.30;99.90;;;;;;5040087;28;20048;-75
2022/03/09 03:43:04;;;;;;;10.75;6.82;;;-0.40;99.90;;;;;;5056767;28;20044;-74
2022/03/09 03:45:30;;;;;;;12.57;7.18;;;-0.40;99.90;;;;;;5074759;28;20483;-74
2022/03/09 03:47:56;;;;;;;12.05;6.95;;;-0.40;99.90;;;;;;5047974;28;20056;-74
2022/03/09 03:50:21;;;;;;;13.68;8.02;;;-0.50;99.90;;;;;;5074424;28;20044;-73
2022/03/09 03:52:47;;;;;;;12.88;7.97;;;-0.50;99.90;;;;;;5077978;28;20055;-72
2022/03/09 03:55:13;;;;;;;17.05;8.68;;;-0.50;99.90;;;;;;5043385;28;20047;-73
2022/03/09 03:57:39;;;;;;;15.98;8.00;;;-0.50;99.90;;;;;;5043449;28;20059;-74
2022/03/09 04:00:06;;;;;;;12.05;7.10;;;-0.50;99.90;;;;;;5077616;28;20436;-73
2022/03/09 04:02:32;;;;;;;12.07;7.68;;;-0.50;99.90;;;;;;5077714;28;20109;-73
2022/03/09 04:04:57;;;;;;;13.10;7.75;;;-0.40;99.90;;;;;;5060357;28;20445;-75
2022/03/09 04:07:23;;;;;;;12.93;7.68;;;0.00;99.90;;;;;;5077672;28;20052;-73
2022/03/09 04:09:49;;;;;;;13.57;7.65;;;-0.40;99.90;;;;;;5043076;28;20392;-75
2022/03/09 04:12:14;;;;;;;11.65;7.40;;;-0.40;99.90;;;;;;5077350;28;20349;-72
2022/03/09 04:14:40;;;;;;;14.45;7.97;;;-0.40;99.90;;;;;;5077470;28;20041;-73
2022/03/09 04:17:05;;;;;;;11.30;7.25;;;-0.40;99.90;;;;;;5071198;28;20041;-73
2022/03/09 04:19:31;;;;;;;13.93;7.72;;;-0.40;99.90;;;;;;5040291;28;20141;-74
2022/03/09 04:21:57;;;;;;;17.27;7.85;;;-0.40;99.90;;;;;;5039954;28;20057;-73
2022/03/09 04:24:22;;;;;;;12.70;8.07;;;-0.40;99.90;;;;;;5039712;28;20053;-74
2022/03/09 04:26:48;;;;;;;12.15;7.95;;;-0.40;99.90;;;;;;5057328;28;20052;-75
2022/03/09 04:29:14;;;;;;;12.85;7.55;;;-0.40;99.90;;;;;;5039641;28;20053;-74
2022/03/09 04:31:39;;;;;;;11.57;7.45;;;-0.40;99.90;;;;;;5039588;28;20136;-73
2022/03/09 04:34:05;;;;;;;14.50;7.85;;;-0.30;99.90;;;;;;5039676;28;20076;-73
2022/03/09 04:36:31;;;;;;;14.30;7.70;;;-0.40;99.90;;;;;;5057476;28;20088;-75
2022/03/09 04:38:57;;;;;;;12.27;7.97;;;-0.50;99.90;;;;;;5039332;28;20470;-74
2022/03/09 04:41:22;;;;;;;13.27;8.25;;;-0.50;99.90;;;;;;5057149;28;20434;-74
2022/03/09 04:43:48;;;;;;;12.65;7.70;;;-0.30;99.90;;;;;;5057366;28;20049;-74
2022/03/09 04:46:15;;;;;;;13.07;7.78;;;0.00;99.90;;;;;;5040568;28;20045;-75
2022/03/09 04:48:40;;;;;;;13.73;7.93;;;-0.50;99.90;;;;;;5059412;28;20361;-73
2022/03/09 04:51:06;;;;;;;13.85;8.13;;;-0.50;99.90;;;;;;5076666;28;20036;-75
2022/03/09 04:53:32;;;;;;;11.90;7.43;;;-0.60;99.90;;;;;;5076216;28;20028;-74
2022/03/09 04:55:57;;;;;;;11.30;7.05;;;-0.60;99.90;;;;;;5058779;28;20083;-75
2022/03/09 04:58:26;;;;;;;13.15;7.95;;;-0.70;99.90;;;;;;5062387;28;20048;-73
2022/03/09 05:00:52;;;;;;;17.65;8.13;;;-0.80;99.90;;;;;;5063826;28;20354;-74
2022/03/09 05:03:18;;;;;;;15.63;7.85;;;-0.80;99.90;;;;;;5060263;28;20060;-74
2022/03/09 05:05:44;;;;;;;15.80;8.20;;;-0.80;99.90;;;;;;5059734;28;20051;-71
2022/03/09 05:08:10;;;;;;;14.90;8.48;;;-0.90;99.90;;;;;;5059069;28;20445;-75
2022/03/09 05:10:38;;;;;;;13.25;7.78;;;-0.90;99.90;;;;;;5058168;28;20084;-75
2022/03/09 05:13:05;;;;;;;14.07;8.02;;;-1.00;99.90;;;;;;5076166;28;20052;-73
2022/03/09 05:15:31;;;;;;;16.65;8.38;;;-1.00;99.90;;;;;;5076150;28;20049;-72
2022/03/09 05:17:56;;;;;;;14.85;8.10;;;-1.10;99.90;;;;;;5072628;28;20037;-75
2022/03/09 05:20:22;;;;;;;13.50;7.82;;;-1.10;99.90;;;;;;5058347;28;20048;-74
2022/03/09 05:22:49;;;;;;;13.23;8.73;;;-1.10;99.90;;;;;;5076236;28;20543;-73
2022/03/09 05:25:15;;;;;;;15.55;8.65;;;-0.80;99.90;;;;;;5058480;28;20045;-73
2022/03/09 05:27:41;;;;;;;13.18;8.18;;;-1.20;99.90;;;;;;5059269;28;20045;-72
2022/03/09 05:30:12;;;;;;;14.18;8.32;;;-1.20;99.90;;;;;;5058598;28;20439;-73
2022/03/09 05:32:41;;;;;;;13.40;7.80;;;-1.20;99.90;;;;;;5058468;28;20044;-74
2022/03/09 05:35:09;;;;;;;12.05;8.23;;;-1.20;99.90;;;;;;5036991;28;20045;-74
2022/03/09 05:37:39;;;;;;;16.90;8.85;;;-1.30;99.90;;;;;;5056044;28;20033;-73
2022/03/09 05:40:06;;;;;;;15.15;8.23;;;-1.30;99.90;;;;;;5059323;28;20416;-73
2022/03/09 05:42:32;;;;;;;12.50;8.63;;;-1.30;99.90;;;;;;5038178;28;20037;-72
2022/03/09 05:44:58;;;;;;;13.70;8.60;;;-1.30;99.90;;;;;;5037907;28;20076;-73
2022/03/09 05:47:24;;;;;;;15.30;8.55;;;-1.30;99.90;;;;;;5021744;28;20079;-74
2022/03/09 05:49:49;;;;;;;14.07;8.73;;;-1.30;99.90;;;;;;5055913;28;20041;-74
2022/03/09 05:52:15;;;;;;;17.73;8.90;;;-1.20;99.90;;;;;;5038359;28;20098;-72
2022/03/09 05:54:40;;;;;;;15.90;9.13;;;-1.20;99.90;;;;;;5055171;28;20465;-72
2022/03/09 05:57:06;;;;;;;15.95;9.02;;;-1.20;99.90;;;;;;5055598;28;20068;-71
2022/03/09 05:59:32;;;;;;;14.27;8.75;;;-1.20;99.90;;;;;;5055584;28;20049;-73
2022/03/09 06:01:57;;;;;;;15.00;8.68;;;-1.20;99.90;;;;;;5055542;28;20091;-75
2022/03/09 06:04:23;;;;;;;14.80;9.00;;;-1.20;99.90;;;;;;5037821;28;20048;-74
2022/03/09 06:06:48;;;;;;;14.23;8.85;;;-1.20;99.90;;;;;;5037784;28;20079;-74
2022/03/09 06:09:14;;;;;;;13.07;8.25;;;-1.20;99.90;;;;;;5063131;28;20047;-74
2022/03/09 06:11:41;;;;;;;14.55;9.35;;;-1.20;99.90;;;;;;5075460;28;20036;-75
2022/03/09 06:14:06;;;;;;;16.33;9.60;;;-1.20;99.90;;;;;;5075390;28;20363;-73
2022/03/09 06:16:32;;;;;;;12.13;8.23;;;-1.20;99.90;;;;;;5057729;28;20056;-75
2022/03/09 06:18:58;;;;;;;15.15;9.63;;;-1.20;99.90;;;;;;5073976;28;20098;-74
2022/03/09 06:21:23;;;;;;;16.67;9.30;;;-1.20;99.90;;;;;;5057279;28;20095;-74
2022/03/09 06:23:49;;;;;;;13.18;9.18;;;-1.30;99.90;;;;;;5057061;28;20055;-75
2022/03/09 06:26:14;;;;;;;13.13;8.98;;;-1.30;99.90;;;;;;5040724;28;20041;-75
2022/03/09 06:28:40;;;;;;;15.32;9.38;;;-1.20;99.90;;;;;;5050977;28;20365;-75
2022/03/09 06:31:07;;;;;;;16.05;9.50;;;-1.30;99.90;;;;;;5054361;28;20041;-75
2022/03/09 06:33:32;;;;;;;16.13;9.48;;;-1.30;99.90;;;;;;5034112;28;20068;-73
2022/03/09 06:35:58;;;;;;;16.10;10.20;;;-1.30;99.90;;;;;;5017852;28;20045;-75
2022/03/09 06:38:23;;;;;;;13.48;9.50;;;-1.30;99.90;;;;;;5054929;28;20049;-71
2022/03/09 06:40:49;;;;;;;19.80;9.50;;;-0.90;99.90;;;;;;5042182;28;20059;-75
2022/03/09 06:43:15;;;;;;;19.83;9.68;;;-1.20;99.90;;;;;;5054399;28;20054;-74
2022/03/09 06:45:40;;;;;;;15.02;9.05;;;-1.10;99.90;;;;;;5036943;28;20056;-73
2022/03/09 06:48:07;;;;;;;15.98;9.70;;;-1.10;99.90;;;;;;5037192;28;20060;-76
2022/03/09 06:50:33;;;;;;;13.48;8.68;;;-0.90;99.90;;;;;;5036559;28;20045;-74
2022/03/09 06:52:59;;;;;;;19.60;10.45;;;-0.80;99.90;;;;;;5037097;28;20049;-75
2022/03/09 06:55:24;;;;;;;14.60;9.45;;;-0.80;99.90;;;;;;5054316;28;20052;-73
2022/03/09 06:57:50;;;;;;;14.27;9.00;;;-0.20;99.90;;;;;;5054351;28;20052;-75
2022/03/09 07:00:16;;;;;;;14.65;9.50;;;-0.60;99.90;;;;;;5036654;28;20052;-74
2022/03/09 07:02:42;;;;;;;16.33;9.10;;;-0.60;99.90;;;;;;5020276;28;20095;-74
2022/03/09 07:05:09;;;;;;;14.55;9.50;;;-0.40;99.90;;;;;;5053069;28;20102;-73
2022/03/09 07:07:35;;;;;;;15.25;9.43;;;-0.40;99.90;;;;;;5036021;28;20429;-73
2022/03/09 07:10:01;;;;;;;16.25;8.98;;;-0.30;99.90;;;;;;5030859;28;20044;-74
2022/03/09 07:12:27;;;;;;;15.45;9.32;;;-0.20;99.90;;;;;;5053805;28;20514;-74
2022/03/09 07:14:53;;;;;;;13.48;8.93;;;-0.10;99.90;;;;;;5036444;28;20080;-74
2022/03/09 07:17:18;;;;;;;15.93;9.13;;;0.00;99.90;;;;;;5036208;28;20448;-73
2022/03/09 07:19:44;;;;;;;14.15;8.98;;;0.10;99.90;;;;;;5052485;28;20350;-73
2022/03/09 07:22:10;;;;;;;15.27;8.93;;;0.20;99.90;;;;;;5038831;28;20076;-73
2022/03/09 07:24:36;;;;;;;12.18;8.77;;;0.30;99.90;;;;;;5057906;28;20045;-75
2022/03/09 07:27:02;;;;;;;15.57;8.88;;;0.40;99.90;;;;;;5058099;28;20111;-75
2022/03/09 07:29:28;;;;;;;16.77;9.07;;;0.60;99.90;;;;;;5040419;28;20061;-74
2022/03/09 07:31:53;;;;;;;14.15;8.23;;;0.70;99.90;;;;;;5057743;28;20055;-74
2022/03/09 07:34:22;;;;;;;15.00;8.85;;;0.90;99.90;;;;;;5023011;28;20053;-74
2022/03/09 07:36:49;;;;;;;14.60;8.77;;;1.00;99.90;;;;;;5057819;28;20118;-73
2022/03/09 07:39:15;;;;;;;13.00;8.23;;;1.10;99.90;;;;;;5036918;28;20059;-76
2022/03/09 07:41:41;;;;;;;13.30;9.13;;;1.30;99.90;;;;;;5056509;28;20076;-73
2022/03/09 07:44:06;;;;;;;12.10;8.23;;;1.40;99.90;;;;;;5039865;28;20081;-73
2022/03/09 07:46:32;;;;;;;12.75;7.97;;;1.50;99.90;;;;;;5068119;28;20036;-73
2022/03/09 07:48:57;;;;;;;21.08;8.18;;;2.20;99.90;;;;;;5059883;28;20103;-75
2022/03/09 07:51:23;;;;;;;16.75;8.50;;;1.70;99.90;;;;;;5077577;28;20372;-75
2022/03/09 07:53:48;;;;;;;11.55;7.95;;;1.70;99.90;;;;;;5037817;28;20044;-74
2022/03/09 07:56:14;;;;;;;14.27;8.75;;;1.80;99.90;;;;;;5057861;28;20135;-74
2022/03/09 07:58:40;;;;;;;15.73;8.00;;;1.90;99.90;;;;;;5023696;28;20091;-73
2022/03/09 08:01:06;;;;;;;12.60;8.18;;;2.00;99.90;;;;;;5023218;28;20041;-76
2022/03/09 08:03:32;;;;;;;11.93;8.02;;;2.20;99.90;;;;;;5069536;28;20053;-76
2022/03/09 08:05:58;;;;;;;12.18;7.47;;;2.20;99.90;;;;;;5039847;28;20052;-74
2022/03/09 08:08:23;;;;;;;10.13;7.25;;;2.30;99.90;;;;;;5039408;28;20056;-72
2022/03/09 08:10:50;;;;;;;15.93;7.72;;;2.40;99.90;;;;;;5057512;28;20045;-74
2022/03/09 08:13:15;;;;;;;14.80;8.68;;;2.50;99.90;;;;;;5056236;28;20106;-73
2022/03/09 08:15:41;;;;;;;11.90;7.55;;;2.50;99.90;;;;;;5023208;28;20048;-76
2022/03/09 08:18:07;;;;;;;13.57;7.63;;;2.60;99.90;;;;;;5056352;28;20055;-75
2022/03/09 08:20:32;;;;;;;11.70;7.38;;;2.70;99.90;;;;;;5039139;28;20120;-74
2022/03/09 08:22:58;;;;;;;14.02;7.32;;;2.90;99.90;;;;;;5056630;28;20113;-75
2022/03/09 08:25:23;;;;;;;14.48;7.78;;;3.00;99.90;;;;;;5038990;28;20079;-74
2022/03/09 08:27:49;;;;;;;14.70;7.35;;;3.00;99.90;;;;;;5060698;28;20052;-74
2022/03/09 08:30:15;;;;;;;12.32;6.93;;;3.10;99.90;;;;;;5049012;28;20040;-74
2022/03/09 08:32:40;;;;;;;11.38;7.80;;;3.20;99.90;;;;;;5045661;28;20203;-73
2022/03/09 08:35:06;;;;;;;12.75;7.68;;;3.20;99.90;;;;;;5055714;28;20048;-76
2022/03/09 08:37:32;;;;;;;11.50;6.93;;;3.30;99.90;;;;;;5039269;28;20099;-74
2022/03/09 08:39:57;;;;;;;11.82;7.45;;;3.40;99.90;;;;;;5041364;28;20041;-74
2022/03/09 08:42:23;;;;;;;12.30;7.93;;;3.50;99.90;;;;;;5049695;28;20052;-76
2022/03/09 08:44:49;;;;;;;13.07;7.78;;;3.60;99.90;;;;;;5038861;28;20044;-73
2022/03/09 08:47:15;;;;;;;14.07;7.50;;;3.60;99.90;;;;;;5028701;28;20389;-74
2022/03/09 08:49:41;;;;;;;12.30;8.35;;;3.60;99.90;;;;;;5037471;28;20401;-75
2022/03/09 08:52:08;;;;;;;11.40;7.00;;;3.80;99.90;;;;;;5038524;28;20049;-74
2022/03/09 08:54:33;;;;;;;12.32;7.53;;;3.80;99.90;;;;;;5038423;28;20103;-75
2022/03/09 08:56:59;;;;;;;12.00;6.93;;;3.90;99.90;;;;;;5039151;28;20041;-74
2022/03/09 08:59:25;;;;;;;11.65;7.13;;;4.10;99.90;;;;;;5056203;28;20049;-73
2022/03/09 09:01:50;;;;;;;10.32;7.18;;;4.30;99.90;;;;;;5038680;28;20052;-75
2022/03/09 09:04:16;;;;;;;11.68;7.40;;;4.30;99.90;;;;;;5055757;28;20044;-74
2022/03/09 09:06:43;;;;;;;11.35;7.38;;;4.40;99.90;;;;;;5038547;28;20433;-74
2022/03/09 09:09:09;;;;;;;10.70;7.43;;;4.50;99.90;;;;;;5055895;28;20041;-73
2022/03/09 09:11:35;;;;;;;12.88;7.65;;;4.60;99.90;;;;;;5052760;28;20040;-70
2022/03/09 09:14:01;;;;;;;11.07;7.53;;;4.70;99.90;;;;;;5055264;28;20056;-73
2022/03/09 09:16:26;;;;;;;15.25;7.43;;;4.70;99.90;;;;;;5037807;28;20052;-74
2022/03/09 09:18:52;;;;;;;11.82;7.35;;;4.90;99.90;;;;;;5038610;28;20060;-73
2022/03/09 09:21:18;;;;;;;10.90;6.72;;;5.00;99.90;;;;;;5056310;28;20060;-72
2022/03/09 09:23:44;;;;;;;15.98;7.47;;;5.00;99.90;;;;;;5038490;28;20053;-74
2022/03/09 09:26:09;;;;;;;10.45;7.32;;;5.20;99.90;;;;;;5055835;28;20049;-76
2022/03/09 09:28:35;;;;;;;11.95;7.30;;;5.40;99.90;;;;;;5055061;28;20049;-72
2022/03/09 09:31:01;;;;;;;10.95;7.05;;;5.60;99.90;;;;;;5054778;28;20053;-73
2022/03/09 09:33:27;;;;;;;13.13;7.85;;;5.70;99.90;;;;;;5038580;28;20048;-75
2022/03/09 09:35:53;;;;;;;12.50;7.55;;;5.80;99.90;;;;;;5055842;28;20067;-73
2022/03/09 09:38:19;;;;;;;12.32;6.80;;;5.80;99.90;;;;;;5041463;28;20366;-73
2022/03/09 09:40:46;;;;;;;11.20;6.63;;;6.00;99.90;;;;;;5058493;28;20048;-74
2022/03/09 09:43:15;;;;;;;12.30;6.80;;;6.10;99.90;;;;;;5075174;28;20123;-74
2022/03/09 09:45:42;;;;;;;11.80;7.20;;;6.10;99.90;;;;;;5058057;28;20372;-74
2022/03/09 09:48:09;;;;;;;11.75;6.78;;;6.30;99.90;;;;;;5055152;28;20471;-75
2022/03/09 09:50:36;;;;;;;12.13;7.15;;;6.30;99.90;;;;;;5075506;28;20076;-74
2022/03/09 09:53:06;;;;;;;11.15;6.88;;;6.30;99.90;;;;;;5058925;28;20453;-73
2022/03/09 09:55:33;;;;;;;11.52;7.18;;;6.40;99.90;;;;;;5075493;28;20067;-75
2022/03/09 09:57:59;;;;;;;11.48;8.00;;;6.40;99.50;;;;;;5075710;28;20055;-75
2022/03/09 10:00:25;;;;;;;15.18;7.50;;;6.50;99.90;;;;;;5075119;28;20048;-76
2022/03/09 10:02:51;;;;;;;17.55;8.13;;;6.60;99.90;;;;;;5075312;28;20105;-75
2022/03/09 10:05:18;;;;;;;11.73;7.65;;;6.70;99.40;;;;;;5058330;28;20060;-75
2022/03/09 10:08:03;;;;;;;10.20;7.25;;;6.70;99.20;;;;;;5073708;28;20119;-73
2022/03/09 10:10:36;;;;;;;10.25;7.10;;;6.80;98.90;;;;;;5037690;28;20045;-73
2022/03/09 10:13:13;;;;;;;10.43;7.15;;;6.90;99.20;;;;;;5055232;28;20374;-72
2022/03/09 10:15:39;;;;;;;12.57;8.30;;;7.00;99.00;;;;;;5037786;28;20098;-74
2022/03/09 10:18:32;;;;;;;11.88;7.18;;;7.10;98.30;;;;;;5055257;28;20052;-72
2022/03/09 10:21:12;;;;;;;14.25;7.18;;;7.30;99.30;;;;;;5072401;28;20044;-73
2022/03/09 10:23:54;;;;;;;11.55;8.13;;;7.30;98.60;;;;;;5075255;28;20045;-74
2022/03/09 10:26:22;;;;;;;12.35;7.72;;;7.40;95.70;;;;;;5041015;28;20110;-72
2022/03/09 10:28:59;;;;;;;14.93;8.45;;;7.60;96.70;;;;;;5075139;28;20044;-72
2022/03/09 10:31:38;;;;;;;12.35;7.40;;;7.70;97.30;;;;;;5075019;28;20440;-74
2022/03/09 10:34:05;;;;;;;11.55;8.15;;;7.80;98.30;;;;;;5074741;28;20060;-73
2022/03/09 10:36:31;;;;;;;12.68;6.88;;;7.80;96.40;;;;;;5074885;28;20091;-71
2022/03/09 10:39:11;;;;;;;12.77;7.55;;;7.90;95.80;;;;;;5064352;28;20377;-73
2022/03/09 10:41:36;;;;;;;15.77;8.00;;;8.00;93.60;;;;;;5054635;28;20053;-72
2022/03/09 10:44:02;;;;;;;12.05;7.82;;;8.10;96.30;;;;;;5054980;28;20136;-71
2022/03/09 10:46:41;;;;;;;14.15;8.02;;;8.10;97.10;;;;;;5037586;28;20076;-73
2022/03/09 10:49:08;;;;;;;12.05;7.97;;;8.20;95.20;;;;;;5054704;28;20041;-71
2022/03/09 10:51:42;;;;;;;10.95;7.95;;;8.40;95.40;;;;;;5054652;28;20050;-71
2022/03/09 10:54:16;;;;;;;12.80;7.82;;;8.40;93.40;;;;;;5054786;28;20080;-72
2022/03/09 10:56:44;;;;;;;11.75;7.82;;;8.50;92.70;;;;;;5037061;28;20080;-72
2022/03/09 10:59:10;;;;;;;12.75;8.35;;;8.70;83.30;;;;;;5054651;28;20372;-75
2022/03/09 11:01:36;;;;;;;11.45;7.90;;;8.70;84.10;;;;;;5055122;28;20049;-73
2022/03/09 11:04:15;;;;;;;10.88;7.35;;;8.90;85.60;;;;;;5054349;28;20167;-72
2022/03/09 11:06:46;;;;;;;14.82;8.57;;;8.90;81.90;;;;;;5037067;28;20049;-72
2022/03/09 11:09:14;;;;;;;12.35;7.80;;;9.00;85.40;;;;;;5066342;28;20055;-73
2022/03/09 11:11:41;;;;;;;11.85;7.63;;;9.10;88.10;;;;;;5074946;28;20353;-73
2022/03/09 11:14:08;;;;;;;13.02;8.27;;;9.10;87.30;;;;;;5074445;28;20059;-71
2022/03/09 11:16:34;;;;;;;14.45;7.72;;;9.20;90.10;;;;;;5074537;28;20037;-72
2022/03/09 11:19:02;;;;;;;13.90;7.85;;;9.30;90.30;;;;;;5056966;28;20048;-72
2022/03/09 11:21:29;;;;;;;12.18;7.53;;;9.30;85.60;;;;;;5074365;28;20368;-72
2022/03/09 11:23:54;;;;;;;11.55;7.72;;;9.40;80.40;;;;;;5074424;28;20384;-72
2022/03/09 11:26:25;;;;;;;12.55;7.53;;;9.50;83.20;;;;;;5074115;28;20131;-73
2022/03/09 11:29:12;;;;;;;14.23;8.27;;;9.60;83.80;;;;;;5074133;28;20453;-73
2022/03/09 11:31:51;;;;;;;15.88;7.72;;;9.80;86.40;;;;;;5074332;28;20471;-74
2022/03/09 11:34:38;;;;;;;13.10;7.78;;;9.80;79.50;;;;;;5056610;28;20053;-73
2022/03/09 11:37:10;;;;;;;15.43;8.57;;;9.90;88.40;;;;;;5056718;28;20056;-73
2022/03/09 11:39:38;;;;;;;14.88;8.57;;;9.90;90.60;;;;;;5038685;28;20338;-71
2022/03/09 11:42:34;;;;;;;12.27;8.30;;;10.00;78.90;;;;;;5036714;28;20051;-73
2022/03/09 11:45:20;;;;;;;13.40;8.10;;;10.10;86.40;;;;;;5024236;28;20068;-72
2022/03/09 11:48:01;;;;;;;12.48;8.38;;;10.20;85.10;;;;;;5054447;28;20056;-73
2022/03/09 11:50:28;;;;;;;14.88;8.38;;;10.20;79.40;;;;;;5036336;28;20048;-73
2022/03/09 11:53:05;;;;;;;14.82;7.93;;;10.30;83.40;;;;;;5033319;28;20064;-74
2022/03/09 11:55:32;;;;;;;11.90;8.18;;;10.40;81.80;;;;;;5053814;28;20048;-73
2022/03/09 11:58:05;;;;;;;12.63;8.20;;;10.50;81.30;;;;;;5054169;28;20037;-73
2022/03/09 12:00:31;;;;;;;11.77;7.63;;;10.50;84.50;;;;;;5054248;28;20111;-74
2022/03/09 12:02:57;;;;;;;12.23;8.27;;;10.60;82.10;;;;;;5036610;28;20049;-73
2022/03/09 12:05:23;;;;;;;12.70;8.63;;;10.60;78.50;;;;;;5036243;28;20442;-72
2022/03/09 12:07:49;;;;;;;13.60;7.85;;;10.60;83.30;;;;;;5041512;28;20063;-74
2022/03/09 12:10:17;;;;;;;16.08;7.75;;;10.70;79.50;;;;;;5077468;28;20048;-72
2022/03/09 12:13:10;;;;;;;12.30;8.50;;;10.80;83.00;;;;;;5077569;28;20037;-74
2022/03/09 12:16:04;;;;;;;12.23;8.27;;;10.60;74.90;;;;;;5059590;28;20059;-73
2022/03/09 12:18:50;;;;;;;10.98;7.78;;;10.70;74.10;;;;;;5077313;28;20053;-73
2022/03/09 12:21:37;;;;;;;11.80;7.53;;;10.90;76.70;;;;;;5059212;28;20151;-74
2022/03/09 12:24:05;;;;;;;11.02;7.80;;;10.80;74.80;;;;;;5059912;28;20063;-74
2022/03/09 12:26:50;;;;;;;12.80;8.38;;;10.80;73.80;;;;;;5059586;28;20139;-74
2022/03/09 12:29:21;;;;;;;14.20;8.90;;;10.90;74.30;;;;;;5077139;28;20388;-73
2022/03/09 12:31:59;;;;;;;11.45;6.30;;;11.00;77.40;;;;;;5059139;28;20040;-73
2022/03/09 12:34:26;;;;;;;11.32;7.85;;;11.10;73.70;;;;;;5077247;28;20365;-73
2022/03/09 12:36:52;;;;;;;10.18;7.93;;;11.10;76.80;;;;;;5059555;28;20053;-73
2022/03/09 12:39:18;;;;;;;13.05;8.20;;;11.20;73.20;;;;;;5044556;28;20350;-74
2022/03/09 12:41:49;;;;;;;14.57;8.20;;;11.20;71.80;;;;;;5039189;28;20127;-72
2022/03/09 12:44:17;;;;;;;11.90;8.50;;;11.20;73.20;;;;;;5057396;28;20063;-72
2022/03/09 12:46:44;;;;;;;13.70;8.43;;;11.20;72.10;;;;;;5039455;28;20135;-73